Hub


Voltar

 INFORMAÇÕES METEOROLÓGICAS

METAR FOR KLWV


ADDS - METARS form results

(2026 UTC 17 January 2019)
Data provider http://aviationweather.gov/metar/data/
 
METAR text: KLWV 172018Z AUTO 28009KT 10SM OVC011 07/04 A2999 RMK AO2 T00670044
Conditions at: KLWV (LAWRENCEVILLE , IL, US) observed 2018 UTC 17 January 2019
Temperature: 6.7°C (44°F)
Dewpoint: 4.4°C (40°F) [RH = 85%]
Pressure (altimeter): 29.99 inches Hg (1015.7 mb)
Winds: from the W (280 degrees) at 10 MPH (9 knots; 4.6 m/s)
Visibility: 10 or more miles (16+ km)
Ceiling: 1100 feet AGL
Clouds: overcast cloud deck at 1100 feet AGL
Weather: automated observation with no human augmentation;
there may or may not be significant weather present at this time

METAR text: KLWV 171953Z AUTO 28007KT 9SM OVC009 07/04 A2998 RMK AO2 CIG 007V012 SLP154 T00670044
Conditions at: KLWV (LAWRENCEVILLE , IL, US) observed 1953 UTC 17 January 2019
Temperature: 6.7°C (44°F)
Dewpoint: 4.4°C (40°F) [RH = 85%]
Pressure (altimeter): 29.98 inches Hg (1015.3 mb)
[Sea-level pressure: 1015.4 mb]
Winds: from the W (280 degrees) at 8 MPH (7 knots; 3.6 m/s)
Visibility: 9 miles (14 km)
Ceiling: 900 feet AGL
Clouds: overcast cloud deck at 900 feet AGL
Weather: automated observation with no human augmentation;
there may or may not be significant weather present at this time


 MAPA DO AEROPORTO


 INFORMAÇÕES DA PISTA

Pista 04U Tamanho da pista 1000 ft Largura da pista 200 ft
Elevação da pista 0 ft Ranhura da pista 0 ft Proa da pista 0
Pista 22U Tamanho da pista 1000 ft Largura da pista 200 ft
Elevação da pista 0 ft Ranhura da pista 0 ft Proa da pista 0
Pista 09 Tamanho da pista 5198 ft Largura da pista 150 ft
Elevação da pista 426 ft Ranhura da pista 0 ft Proa da pista 89
Pista 27 Tamanho da pista 5198 ft Largura da pista 150 ft
Elevação da pista 430 ft Ranhura da pista 0 ft Proa da pista 269
Pista 18 Tamanho da pista 5199 ft Largura da pista 150 ft
Elevação da pista 430 ft Ranhura da pista 0 ft Proa da pista 180
Pista 36 Tamanho da pista 5199 ft Largura da pista 150 ft
Elevação da pista 425 ft Ranhura da pista 0 ft Proa da pista 360

 FREQUÊNCIAS DO AEROPORTO

Tipo A/D Nome EVANSVILLE Frequência 125.6 MHZ
Tipo ASOS Nome ASOS Frequência 118 MHZ
Tipo UNIC Nome CTAF/UNICO Frequência 122.8 MHZ

 AUXÍLIOS DE NAVEGAÇÃO PRÓXIMOS AO AEROPORTO